Time;durP1;ratioP1;P1;durP2;ratioP2;P2;SDS_P1;SDS_P2;PMS_P1;PMS_P2;Temp;Humidity;BMP_temperature;BMP_pressure;BME280_temperature;BME280_humidity;BME280_pressure;Samples;Min_cycle;Max_cycle;Signal;HPM_P1;HPM_P2
2022/12/03 00:01:17;;;;;;;;;;;2.50;99.90;;;;;;5060080;28;20459;-59
2022/12/03 00:03:42;;;;;;;;;;;2.50;99.90;;;;;;5070566;28;19908;-57
2022/12/03 00:06:08;;;;;;;;;;;2.50;99.90;;;;;;5070043;28;19908;-61
2022/12/03 00:08:33;;;;;;;;;;;2.50;99.90;;;;;;5069708;28;19995;-59
2022/12/03 00:10:59;;;;;;;;;;;2.50;99.90;;;;;;5069832;28;19908;-58
2022/12/03 00:13:24;;;;;;;;;;;2.40;99.90;;;;;;5069529;28;19965;-61
2022/12/03 00:15:50;;;;;;;;;;;2.40;99.90;;;;;;5069564;28;19908;-57
2022/12/03 00:18:15;;;;;;;;;;;2.40;99.90;;;;;;5069125;28;20004;-57
2022/12/03 00:20:40;;;;;;;;;;;2.40;99.90;;;;;;5069594;28;19916;-58
2022/12/03 00:23:06;;;;;;;;;;;2.40;99.90;;;;;;5068968;28;19908;-59
2022/12/03 00:25:31;;;;;;;;;;;2.40;99.90;;;;;;5069404;28;19995;-60
2022/12/03 00:27:57;;;;;;;;;;;2.40;99.90;;;;;;5068755;28;20371;-61
2022/12/03 00:30:22;;;;;;;;;;;2.40;99.90;;;;;;5069211;28;19959;-58
2022/12/03 00:32:48;;;;;;;;;;;2.40;99.90;;;;;;5069292;28;19912;-60
2022/12/03 00:35:13;;;;;;;;;;;2.40;99.90;;;;;;5068719;28;20386;-59
2022/12/03 00:37:39;;;;;;;;;;;2.30;99.90;;;;;;5069455;28;19904;-59
2022/12/03 00:40:04;;;;;;;;;;;2.30;99.90;;;;;;5069251;28;20404;-60
2022/12/03 00:42:30;;;;;;;;;;;2.30;99.90;;;;;;5069174;28;19954;-58
2022/12/03 00:44:55;;;;;;;;;;;2.30;99.90;;;;;;5069401;28;19944;-57
2022/12/03 00:47:21;;;;;;;;;;;2.30;99.90;;;;;;5069182;28;19911;-60
2022/12/03 00:49:46;;;;;;;;;;;2.20;99.90;;;;;;5069750;28;20002;-58
2022/12/03 00:52:12;;;;;;;;;;;2.20;99.90;;;;;;5069089;28;19927;-58
2022/12/03 00:54:37;;;;;;;;;;;2.20;99.90;;;;;;5069092;28;20192;-60
2022/12/03 00:57:02;;;;;;;;;;;2.20;99.90;;;;;;5059672;28;19962;-56
2022/12/03 00:59:28;;;;;;;;;;;2.20;99.90;;;;;;5069242;28;19915;-55
2022/12/03 01:01:53;;;;;;;;;;;2.20;99.90;;;;;;5069217;28;19912;-58
2022/12/03 01:04:19;;;;;;;;;;;2.20;99.90;;;;;;5068847;28;19935;-59
2022/12/03 01:06:44;;;;;;;;;;;2.10;99.90;;;;;;5069161;28;20289;-59
2022/12/03 01:09:10;;;;;;;;;;;2.20;99.90;;;;;;5068569;28;19993;-56
2022/12/03 01:11:40;;;;;;;;;;;2.10;99.90;;;;;;5068411;28;20054;-60
2022/12/03 01:14:10;;;;;;;;;;;2.10;99.90;;;;;;5068837;28;20391;-56
2022/12/03 01:16:35;;;;;;;;;;;2.10;99.90;;;;;;5065450;28;20322;-57
2022/12/03 01:19:01;;;;;;;;;;;2.10;99.90;;;;;;5068861;28;19957;-55
2022/12/03 01:21:27;;;;;;;;;;;2.10;99.90;;;;;;5068684;28;19908;-55
2022/12/03 01:23:52;;;;;;;;;;;2.10;99.90;;;;;;5061855;28;20415;-58
2022/12/03 01:26:18;;;;;;;;;;;2.10;99.90;;;;;;5068787;28;20291;-59
2022/12/03 01:28:43;;;;;;;;;;;2.10;99.90;;;;;;5069129;28;19908;-58
2022/12/03 01:33:53;;;;;;;;;;;2.00;99.90;;;;;;5068894;28;19923;-59
2022/12/03 01:36:18;;;;;;;;;;;2.00;99.90;;;;;;5068451;28;20296;-59
2022/12/03 01:38:44;;;;;;;;;;;2.00;99.90;;;;;;5068911;28;19908;-57
2022/12/03 01:41:09;;;;;;;;;;;2.00;99.90;;;;;;5069038;28;20305;-57
2022/12/03 01:43:35;;;;;;;;;;;1.90;99.90;;;;;;5068671;28;19948;-57
2022/12/03 01:46:01;;;;;;;;;;;1.90;99.90;;;;;;5069106;28;20394;-57
2022/12/03 01:48:28;;;;;;;;;;;1.90;99.90;;;;;;5068498;28;19967;-58
2022/12/03 01:50:54;;;;;;;;;;;1.80;99.90;;;;;;5068642;28;19960;-58
2022/12/03 01:53:19;;;;;;;;;;;1.80;99.90;;;;;;5068611;28;19971;-59
2022/12/03 01:55:45;;;;;;;;;;;1.80;99.90;;;;;;5068774;28;19912;-57
2022/12/03 01:58:12;;;;;;;;;;;1.80;99.90;;;;;;5067310;28;20473;-58
2022/12/03 02:00:38;;;;;;;;;;;1.70;99.90;;;;;;5066365;28;20351;-52
2022/12/03 02:03:10;;;;;;;;;;;1.70;99.90;;;;;;5064229;28;19954;-57
2022/12/03 02:05:36;;;;;;;;;;;1.70;99.90;;;;;;5063218;28;20360;-55
2022/12/03 02:08:22;;;;;;;;;;;1.60;99.90;;;;;;5068757;28;19911;-57
2022/12/03 02:10:47;;;;;;;;;;;1.60;99.90;;;;;;5064502;28;19916;-59
2022/12/03 02:13:13;;;;;;;;;;;1.60;99.90;;;;;;5068500;28;19916;-57
2022/12/03 02:15:39;;;;;;;;;;;1.70;99.90;;;;;;5069374;28;20009;-59
2022/12/03 02:18:05;;;;;;;;;;;1.70;99.90;;;;;;5071925;28;20293;-55
2022/12/03 02:20:33;;;;;;;;;;;1.70;99.90;;;;;;5071918;28;20272;-59
2022/12/03 02:23:01;;;;;;;;;;;1.60;99.90;;;;;;5061519;28;19986;-58
2022/12/03 02:25:30;;;;;;;;;;;1.60;99.90;;;;;;5071893;28;20382;-56
2022/12/03 02:27:56;;;;;;;;;;;1.60;99.90;;;;;;5071684;28;19912;-58
2022/12/03 02:30:22;;;;;;;;;;;1.60;99.90;;;;;;5071947;28;19904;-59
2022/12/03 02:32:49;;;;;;;;;;;1.60;99.90;;;;;;5071587;28;19951;-57
2022/12/03 02:35:16;;;;;;;;;;;1.60;99.90;;;;;;5071616;28;19904;-57
2022/12/03 02:37:42;;;;;;;;;;;1.50;99.90;;;;;;5072079;28;19905;-58
2022/12/03 02:40:10;;;;;;;;;;;1.60;99.90;;;;;;5072007;28;19909;-57
2022/12/03 02:42:36;;;;;;;;;;;1.60;99.90;;;;;;5071906;28;19951;-56
2022/12/03 02:45:02;;;;;;;;;;;1.50;99.90;;;;;;5071869;28;19973;-58
2022/12/03 02:47:28;;;;;;;;;;;1.60;99.90;;;;;;5071565;28;20364;-55
2022/12/03 02:49:54;;;;;;;;;;;1.50;99.90;;;;;;5071833;28;19904;-57
2022/12/03 02:52:20;;;;;;;;;;;1.50;99.90;;;;;;5070744;28;20373;-56
2022/12/03 02:54:46;;;;;;;;;;;1.50;99.90;;;;;;5071646;28;19908;-58
2022/12/03 02:57:11;;;;;;;;;;;1.50;99.90;;;;;;5071515;28;20490;-58
2022/12/03 02:59:37;;;;;;;;;;;1.50;99.90;;;;;;5071243;28;19912;-59
2022/12/03 03:02:03;;;;;;;;;;;1.40;99.90;;;;;;5070994;28;19908;-59
2022/12/03 03:04:28;;;;;;;;;;;1.50;99.90;;;;;;5071056;28;19915;-59
2022/12/03 03:06:54;;;;;;;;;;;1.40;99.90;;;;;;5071129;28;19912;-60
2022/12/03 03:09:20;;;;;;;;;;;1.40;99.90;;;;;;5071556;28;19904;-57
2022/12/03 03:11:45;;;;;;;;;;;1.40;99.90;;;;;;5071125;28;19904;-58
2022/12/03 03:14:11;;;;;;;;;;;1.40;99.90;;;;;;5071012;28;19920;-55
2022/12/03 03:16:36;;;;;;;;;;;1.40;99.90;;;;;;5071387;28;20303;-59
2022/12/03 03:19:02;;;;;;;;;;;1.40;99.90;;;;;;5070930;28;19995;-57
2022/12/03 03:21:27;;;;;;;;;;;1.30;99.90;;;;;;5070804;28;19947;-59
2022/12/03 03:23:53;;;;;;;;;;;1.30;99.90;;;;;;5071059;28;20169;-58
2022/12/03 03:26:18;;;;;;;;;;;1.30;99.90;;;;;;5070358;28;20376;-59
2022/12/03 03:28:47;;;;;;;;;;;1.30;99.90;;;;;;5070022;28;20350;-60
2022/12/03 03:31:14;;;;;;;;;;;1.30;99.90;;;;;;5070541;28;20368;-55
2022/12/03 03:33:40;;;;;;;;;;;1.30;99.90;;;;;;5068422;28;19912;-58
2022/12/03 03:36:06;;;;;;;;;;;1.30;99.90;;;;;;5070453;28;19966;-55
2022/12/03 03:38:32;;;;;;;;;;;1.30;99.90;;;;;;5070425;28;19912;-56
2022/12/03 03:40:58;;;;;;;;;;;1.30;99.90;;;;;;5070666;28;19908;-57
2022/12/03 03:43:24;;;;;;;;;;;1.30;99.90;;;;;;5069931;28;20015;-58
2022/12/03 03:45:49;;;;;;;;;;;1.30;99.90;;;;;;5070442;28;20363;-57
2022/12/03 03:48:15;;;;;;;;;;;1.20;99.90;;;;;;5070608;28;19912;-59
2022/12/03 03:50:42;;;;;;;;;;;1.20;99.90;;;;;;5070711;28;19908;-59
2022/12/03 03:53:08;;;;;;;;;;;1.20;99.90;;;;;;5072141;28;19922;-60
2022/12/03 03:55:33;;;;;;;;;;;1.20;99.90;;;;;;5070682;28;19961;-58
2022/12/03 03:57:59;;;;;;;;;;;1.20;99.90;;;;;;5071055;28;20007;-58
2022/12/03 04:00:24;;;;;;;;;;;1.20;99.90;;;;;;5070304;28;19909;-56
2022/12/03 04:02:51;;;;;;;;;;;1.20;99.90;;;;;;5063178;28;19908;-57
2022/12/03 04:05:17;;;;;;;;;;;1.10;99.90;;;;;;5062062;28;19904;-54
2022/12/03 04:07:43;;;;;;;;;;;1.10;99.90;;;;;;5069818;28;20273;-58
2022/12/03 04:12:56;;;;;;;;;;;1.10;99.90;;;;;;5069159;28;20326;-59
2022/12/03 04:15:22;;;;;;;;;;;1.00;99.90;;;;;;5064209;28;19905;-58
2022/12/03 04:18:41;;;;;;;;;;;1.10;99.90;;;;;;5069139;28;19919;-59
2022/12/03 04:20:36;;;;;;;;;;;1.10;99.90;;;;;;5063955;28;20382;-59
2022/12/03 04:23:01;;;;;;;;;;;1.00;99.90;;;;;;5068501;28;19944;-60
2022/12/03 04:30:55;;;;;;;;;;;1.00;99.90;;;;;;5069360;28;19962;-54
2022/12/03 04:36:05;;;;;;;;;;;1.00;99.90;;;;;;5068501;28;20023;-58
2022/12/03 04:38:31;;;;;;;;;;;1.00;99.90;;;;;;5062756;28;20074;-60
2022/12/03 04:41:05;;;;;;;;;;;1.00;99.90;;;;;;5068896;28;19962;-59
2022/12/03 04:43:32;;;;;;;;;;;0.90;99.90;;;;;;5068574;28;20288;-59
2022/12/03 04:45:58;;;;;;;;;;;1.00;99.90;;;;;;5068958;28;20003;-59
2022/12/03 04:48:23;;;;;;;;;;;1.00;99.90;;;;;;5069255;28;20384;-58
2022/12/03 04:50:49;;;;;;;;;;;1.00;99.90;;;;;;5068738;28;19919;-58
2022/12/03 04:53:14;;;;;;;;;;;1.00;99.90;;;;;;5068613;28;19916;-59
2022/12/03 04:55:40;;;;;;;;;;;1.00;99.90;;;;;;5068994;28;20307;-57
2022/12/03 04:58:05;;;;;;;;;;;0.90;99.90;;;;;;5069165;28;19915;-57
2022/12/03 05:00:31;;;;;;;;;;;0.90;99.90;;;;;;5068842;28;19908;-60
2022/12/03 05:02:56;;;;;;;;;;;0.90;99.90;;;;;;5068947;28;19905;-60
2022/12/03 05:05:22;;;;;;;;;;;0.90;99.90;;;;;;5068417;28;19935;-57
2022/12/03 05:07:47;;;;;;;;;;;0.90;99.90;;;;;;5068605;28;19915;-59
2022/12/03 05:10:12;;;;;;;;;;;0.90;99.90;;;;;;5068828;28;19911;-60
2022/12/03 05:12:38;;;;;;;;;;;0.90;99.90;;;;;;5067968;28;20323;-58
2022/12/03 05:15:04;;;;;;;;;;;0.90;99.90;;;;;;5069066;28;19904;-59
2022/12/03 05:17:30;;;;;;;;;;;0.90;99.90;;;;;;5068805;28;20043;-59
2022/12/03 05:22:53;;;;;;;;;;;0.90;99.90;;;;;;5034123;28;19957;-60
2022/12/03 05:25:19;;;;;;;;;;;0.90;99.90;;;;;;5069120;28;19994;-59
2022/12/03 05:27:44;;;;;;;;;;;0.90;99.90;;;;;;5068659;28;19967;-57
2022/12/03 05:30:10;;;;;;;;;;;0.90;99.90;;;;;;5068875;28;19920;-57
2022/12/03 05:32:35;;;;;;;;;;;0.80;99.90;;;;;;5068525;28;19913;-60
2022/12/03 05:35:01;;;;;;;;;;;0.80;99.90;;;;;;5059902;28;19916;-60
2022/12/03 05:37:26;;;;;;;;;;;0.80;99.90;;;;;;5068917;28;19905;-59
2022/12/03 05:39:51;;;;;;;;;;;0.90;99.90;;;;;;5068562;28;19908;-58
2022/12/03 05:45:01;;;;;;;;;;;0.80;99.90;;;;;;5066794;28;19922;-58
2022/12/03 05:47:26;;;;;;;;;;;0.90;99.90;;;;;;5068095;28;19908;-61
2022/12/03 05:49:52;;;;;;;;;;;0.80;99.90;;;;;;5068801;28;19904;-60
2022/12/03 05:52:17;;;;;;;;;;;0.80;99.90;;;;;;5071946;28;19909;-59
2022/12/03 05:54:43;;;;;;;;;;;0.80;99.90;;;;;;5072098;28;19916;-57
2022/12/03 05:57:08;;;;;;;;;;;0.80;99.90;;;;;;5072083;28;19958;-60
2022/12/03 05:59:33;;;;;;;;;;;0.80;99.90;;;;;;5072479;28;19949;-59
2022/12/03 06:01:59;;;;;;;;;;;0.80;99.90;;;;;;5063846;28;19913;-58
2022/12/03 06:04:24;;;;;;;;;;;0.80;99.90;;;;;;5072202;28;19973;-60
2022/12/03 06:06:50;;;;;;;;;;;0.80;99.90;;;;;;5072737;28;19911;-59
2022/12/03 06:09:15;;;;;;;;;;;0.70;99.90;;;;;;5072453;28;19908;-58
2022/12/03 06:11:41;;;;;;;;;;;0.70;99.90;;;;;;5064650;28;20364;-59
2022/12/03 06:14:06;;;;;;;;;;;0.80;99.90;;;;;;5063810;28;20326;-58
2022/12/03 06:16:32;;;;;;;;;;;0.70;99.90;;;;;;5072081;28;19905;-60
2022/12/03 06:18:57;;;;;;;;;;;0.80;99.90;;;;;;5071977;28;19912;-61
2022/12/03 06:21:23;;;;;;;;;;;0.70;99.90;;;;;;5071491;28;19943;-60
2022/12/03 06:23:48;;;;;;;;;;;0.70;99.90;;;;;;5072374;28;19905;-59
2022/12/03 06:26:13;;;;;;;;;;;0.70;99.90;;;;;;5072007;28;19908;-58
2022/12/03 06:28:40;;;;;;;;;;;0.70;99.90;;;;;;5071348;28;19951;-58
2022/12/03 06:31:05;;;;;;;;;;;0.70;99.90;;;;;;5071789;28;19919;-60
2022/12/03 06:33:31;;;;;;;;;;;0.70;99.90;;;;;;5071114;28;19916;-59
2022/12/03 06:35:56;;;;;;;;;;;0.70;99.90;;;;;;5071093;28;19915;-58
2022/12/03 06:38:22;;;;;;;;;;;0.70;99.90;;;;;;5071100;28;20348;-59
2022/12/03 06:40:47;;;;;;;;;;;0.80;99.90;;;;;;5071416;28;19912;-60
2022/12/03 06:43:13;;;;;;;;;;;0.70;99.90;;;;;;5070858;28;20083;-58
2022/12/03 06:45:38;;;;;;;;;;;0.70;99.90;;;;;;5071724;28;19919;-56
2022/12/03 06:48:04;;;;;;;;;;;0.70;99.90;;;;;;5071414;28;19981;-58
2022/12/03 06:50:29;;;;;;;;;;;0.70;99.90;;;;;;5071472;28;19908;-57
2022/12/03 06:52:55;;;;;;;;;;;0.70;99.90;;;;;;5071447;28;19904;-56
2022/12/03 06:55:20;;;;;;;;;;;0.70;99.90;;;;;;5071928;28;19912;-58
2022/12/03 06:57:46;;;;;;;;;;;0.70;99.90;;;;;;5071080;28;20273;-56
2022/12/03 07:00:11;;;;;;;;;;;0.70;99.90;;;;;;5071382;28;19912;-59
2022/12/03 07:02:37;;;;;;;;;;;0.70;99.90;;;;;;5070873;28;19916;-58
2022/12/03 07:05:02;;;;;;;;;;;0.70;99.90;;;;;;5070988;28;19909;-60
2022/12/03 07:07:28;;;;;;;;;;;0.70;99.90;;;;;;5071156;28;19955;-58
2022/12/03 07:09:53;;;;;;;;;;;0.70;99.90;;;;;;5071504;28;19905;-60
2022/12/03 07:12:19;;;;;;;;;;;0.70;99.90;;;;;;5070260;28;19916;-58
2022/12/03 07:14:44;;;;;;;;;;;0.70;99.90;;;;;;5070814;28;19974;-58
2022/12/03 07:17:10;;;;;;;;;;;0.70;99.90;;;;;;5071206;28;19909;-60
2022/12/03 07:19:35;;;;;;;;;;;0.70;99.90;;;;;;5112236;22;19927;-66
2022/12/03 07:22:01;;;;;;;;;;;0.70;99.90;;;;;;5090097;28;20291;-68
2022/12/03 07:24:26;;;;;;;;;;;0.70;99.90;;;;;;5091558;28;19904;-67
2022/12/03 07:26:52;;;;;;;;;;;0.70;99.90;;;;;;5090519;28;19926;-66
2022/12/03 07:29:17;;;;;;;;;;;0.70;99.90;;;;;;5078739;28;20316;-67
2022/12/03 07:31:43;;;;;;;;;;;0.70;99.90;;;;;;5089546;28;19907;-67
2022/12/03 07:34:08;;;;;;;;;;;0.70;99.90;;;;;;5090996;28;19911;-65
2022/12/03 07:36:34;;;;;;;;;;;0.70;99.90;;;;;;5090809;28;19915;-66
2022/12/03 07:38:59;;;;;;;;;;;0.80;99.90;;;;;;5090556;28;19908;-66
2022/12/03 07:41:25;;;;;;;;;;;0.70;99.90;;;;;;5090590;28;20390;-66
2022/12/03 07:43:50;;;;;;;;;;;0.80;99.90;;;;;;5089318;28;21171;-66
2022/12/03 07:46:16;;;;;;;;;;;0.70;99.90;;;;;;5086956;28;19908;-66
2022/12/03 07:48:41;;;;;;;;;;;0.70;99.90;;;;;;5089165;28;20316;-67
2022/12/03 07:51:07;;;;;;;;;;;0.70;99.90;;;;;;5085164;28;19912;-67
2022/12/03 07:53:32;;;;;;;;;;;0.70;99.90;;;;;;5090577;28;20312;-66
2022/12/03 07:55:57;;;;;;;;;;;0.70;99.90;;;;;;5090350;28;19911;-66
2022/12/03 07:58:23;;;;;;;;;;;0.70;99.90;;;;;;5090655;28;20055;-66
2022/12/03 08:00:48;;;;;;;;;;;0.70;99.90;;;;;;5089710;28;19927;-66
2022/12/03 08:03:14;;;;;;;;;;;0.80;99.90;;;;;;5089137;28;19927;-67
2022/12/03 08:05:39;;;;;;;;;;;0.70;99.90;;;;;;5090384;28;19904;-66
2022/12/03 08:08:05;;;;;;;;;;;0.80;99.90;;;;;;5089110;28;19908;-66
2022/12/03 08:10:31;;;;;;;;;;;0.80;99.90;;;;;;5080228;28;20272;-66
2022/12/03 08:12:57;;;;;;;;;;;0.80;99.90;;;;;;5080409;28;19915;-67
2022/12/03 08:15:24;;;;;;;;;;;0.80;99.90;;;;;;5090386;28;19939;-67
2022/12/03 08:18:00;;;;;;;;;;;0.80;99.90;;;;;;5089453;28;20182;-66
2022/12/03 08:20:39;;;;;;;;;;;0.80;99.90;;;;;;5083034;28;19911;-66
2022/12/03 08:23:13;;;;;;;;;;;0.80;99.90;;;;;;5088991;28;19915;-66
2022/12/03 08:25:38;;;;;;;;;;;0.70;99.90;;;;;;5089655;28;19911;-66
2022/12/03 08:28:06;;;;;;;;;;;0.70;99.90;;;;;;5089381;28;19908;-66
2022/12/03 08:30:32;;;;;;;;;;;0.70;99.90;;;;;;5089871;28;19924;-66
2022/12/03 08:32:58;;;;;;;;;;;0.70;99.90;;;;;;5078995;28;19908;-67
2022/12/03 08:35:25;;;;;;;;;;;0.80;99.90;;;;;;5088565;28;19904;-67
2022/12/03 08:37:56;;;;;;;;;;;0.80;99.90;;;;;;5089219;28;19919;-67
2022/12/03 08:40:25;;;;;;;;;;;0.80;99.90;;;;;;5082367;28;20272;-66
2022/12/03 08:42:51;;;;;;;;;;;0.80;99.90;;;;;;5076109;28;19958;-67
2022/12/03 08:45:29;;;;;;;;;;;0.80;99.90;;;;;;5089136;28;19939;-68
2022/12/03 08:47:55;;;;;;;;;;;0.90;99.90;;;;;;5088851;28;19961;-67
2022/12/03 08:50:28;;;;;;;;;;;0.90;99.90;;;;;;5088517;28;20281;-66
2022/12/03 08:52:57;;;;;;;;;;;0.90;99.90;;;;;;5088664;28;20316;-66
2022/12/03 08:55:46;;;;;;;;;;;0.90;99.90;;;;;;5088153;28;19908;-66
2022/12/03 08:58:22;;;;;;;;;;;0.90;99.90;;;;;;5077607;28;19904;-66
2022/12/03 09:00:50;;;;;;;;;;;0.90;99.90;;;;;;5089392;28;19908;-67
2022/12/03 09:03:17;;;;;;;;;;;0.90;99.90;;;;;;5062773;28;19904;-67
2022/12/03 09:05:43;;;;;;;;;;;0.90;99.90;;;;;;5089570;28;19911;-67
2022/12/03 09:08:08;;;;;;;;;;;1.00;99.90;;;;;;5089222;28;20329;-67
2022/12/03 09:10:34;;;;;;;;;;;1.00;99.90;;;;;;5088855;28;19911;-67
2022/12/03 09:12:59;;;;;;;;;;;1.00;99.90;;;;;;5088888;28;19904;-67
2022/12/03 09:15:25;;;;;;;;;;;1.00;99.90;;;;;;5089171;28;19908;-67
2022/12/03 09:17:50;;;;;;;;;;;1.00;99.90;;;;;;5080988;28;19917;-68
2022/12/03 09:20:16;;;;;;;;;;;1.00;99.90;;;;;;5079381;28;20268;-67
2022/12/03 09:22:41;;;;;;;;;;;1.00;99.90;;;;;;5073312;28;19923;-66
2022/12/03 09:25:07;;;;;;;;;;;1.00;99.90;;;;;;5090872;28;20354;-66
2022/12/03 09:27:32;;;;;;;;;;;1.00;99.90;;;;;;5093162;28;19994;-67
2022/12/03 09:29:58;;;;;;;;;;;1.10;99.90;;;;;;5092785;28;19911;-67
2022/12/03 09:32:23;;;;;;;;;;;1.10;99.90;;;;;;5092300;28;19961;-67
2022/12/03 09:34:49;;;;;;;;;;;1.00;99.90;;;;;;5082636;28;20338;-68
2022/12/03 09:37:15;;;;;;;;;;;1.00;99.90;;;;;;5083369;28;19911;-66
2022/12/03 09:39:40;;;;;;;;;;;1.10;99.90;;;;;;5092385;28;19962;-67
2022/12/03 09:42:06;;;;;;;;;;;1.00;99.90;;;;;;5092365;28;19903;-67
2022/12/03 09:44:32;;;;;;;;;;;1.10;99.90;;;;;;5095988;28;19912;-67
2022/12/03 09:46:59;;;;;;;;;;;1.10;99.90;;;;;;5092781;28;19908;-66
2022/12/03 09:49:25;;;;;;;;;;;1.10;99.90;;;;;;5092921;28;19919;-66
2022/12/03 09:51:51;;;;;;;;;;;1.20;99.90;;;;;;5092976;28;19944;-67
2022/12/03 09:54:21;;;;;;;;;;;1.20;99.90;;;;;;5092254;28;19978;-67
2022/12/03 09:56:47;;;;;;;;;;;1.30;99.90;;;;;;5092879;28;19904;-66
2022/12/03 09:59:13;;;;;;;;;;;1.30;99.90;;;;;;5092346;28;19908;-66
2022/12/03 10:01:38;;;;;;;;;;;1.30;99.90;;;;;;5092405;28;19915;-66
2022/12/03 10:04:04;;;;;;;;;;;1.30;99.90;;;;;;5092302;28;19908;-65
2022/12/03 10:06:30;;;;;;;;;;;1.40;99.90;;;;;;5070002;28;20004;-66
2022/12/03 10:08:55;;;;;;;;;;;1.40;99.90;;;;;;5079467;28;19904;-66
2022/12/03 10:11:22;;;;;;;;;;;1.40;99.90;;;;;;5092018;28;20418;-66
2022/12/03 10:13:48;;;;;;;;;;;1.40;99.90;;;;;;5092921;28;19908;-65
2022/12/03 10:16:15;;;;;;;;;;;1.40;99.90;;;;;;5092103;28;19912;-68
2022/12/03 10:18:43;;;;;;;;;;;1.40;99.90;;;;;;5082608;28;19998;-67
2022/12/03 10:21:15;;;;;;;;;;;1.40;99.90;;;;;;5092160;28;19916;-67
2022/12/03 10:23:41;;;;;;;;;;;1.40;99.90;;;;;;5083954;28;19908;-66
2022/12/03 10:26:06;;;;;;;;;;;1.50;99.90;;;;;;5075375;28;19908;-66
2022/12/03 10:28:33;;;;;;;;;;;1.50;99.90;;;;;;5083577;28;19908;-67
2022/12/03 10:30:59;;;;;;;;;;;1.50;99.90;;;;;;5091896;28;19908;-66
2022/12/03 10:33:32;;;;;;;;;;;1.50;99.90;;;;;;5083120;28;19958;-65
2022/12/03 10:36:18;;;;;;;;;;;1.50;99.90;;;;;;5090652;28;20394;-67
2022/12/03 10:38:44;;;;;;;;;;;1.40;99.90;;;;;;5088888;28;19965;-66
2022/12/03 10:41:39;;;;;;;;;;;1.40;99.90;;;;;;5092077;28;19904;-67
2022/12/03 10:44:13;;;;;;;;;;;1.40;99.90;;;;;;5069641;28;19908;-66
2022/12/03 10:46:38;;;;;;;;;;;1.40;99.90;;;;;;5091932;28;20423;-66
2022/12/03 10:49:15;;;;;;;;;;;1.40;99.90;;;;;;5092197;28;19936;-67
2022/12/03 10:51:40;;;;;;;;;;;1.40;99.90;;;;;;5071434;28;19954;-67
2022/12/03 10:54:15;;;;;;;;;;;1.40;99.90;;;;;;5077613;28;19912;-67
2022/12/03 10:56:40;;;;;;;;;;;1.40;99.90;;;;;;5091426;28;19923;-67
2022/12/03 10:59:08;;;;;;;;;;;1.40;99.90;;;;;;5081697;28;19904;-67
2022/12/03 11:01:34;;;;;;;;;;;1.40;99.90;;;;;;5090770;28;19908;-67
2022/12/03 11:04:03;;;;;;;;;;;1.40;99.90;;;;;;5091450;28;19973;-67
2022/12/03 11:06:30;;;;;;;;;;;1.40;99.90;;;;;;5091368;28;19915;-67
2022/12/03 11:08:56;;;;;;;;;;;1.40;99.90;;;;;;5092297;28;19939;-67
2022/12/03 11:11:25;;;;;;;;;;;1.40;99.90;;;;;;5091069;28;19912;-68
2022/12/03 11:13:51;;;;;;;;;;;1.50;99.90;;;;;;5091013;28;20318;-67
2022/12/03 11:16:36;;;;;;;;;;;1.40;99.90;;;;;;5089491;28;20452;-67
2022/12/03 11:19:02;;;;;;;;;;;1.50;99.90;;;;;;5090849;28;19920;-66
2022/12/03 11:21:28;;;;;;;;;;;1.50;99.90;;;;;;5090405;28;20007;-67
2022/12/03 11:23:59;;;;;;;;;;;1.40;99.90;;;;;;5091115;28;20353;-67
2022/12/03 11:26:27;;;;;;;;;;;1.50;99.90;;;;;;5091128;28;19952;-67
2022/12/03 11:28:56;;;;;;;;;;;1.50;99.90;;;;;;5090893;28;19912;-67
2022/12/03 11:31:34;;;;;;;;;;;1.50;99.90;;;;;;5090618;28;19908;-66
2022/12/03 11:34:21;;;;;;;;;;;1.40;99.90;;;;;;5090786;28;19926;-65
2022/12/03 11:37:05;;;;;;;;;;;1.40;99.90;;;;;;5090460;28;19915;-67
2022/12/03 11:39:55;;;;;;;;;;;1.40;99.90;;;;;;5084542;28;19904;-67
2022/12/03 11:42:26;;;;;;;;;;;1.40;99.90;;;;;;5082544;28;20268;-67
2022/12/03 11:45:04;;;;;;;;;;;1.40;99.90;;;;;;5080956;28;19983;-67
2022/12/03 11:47:30;;;;;;;;;;;1.40;99.90;;;;;;5089916;28;20256;-67
2022/12/03 11:49:56;;;;;;;;;;;1.40;99.90;;;;;;5090222;28;19908;-67
2022/12/03 11:52:24;;;;;;;;;;;1.40;99.90;;;;;;5090007;28;19908;-67
2022/12/03 11:54:52;;;;;;;;;;;1.40;99.90;;;;;;5090523;28;19919;-67
2022/12/03 11:57:25;;;;;;;;;;;1.40;99.90;;;;;;5085946;28;19994;-67
2022/12/03 11:59:58;;;;;;;;;;;1.40;99.90;;;;;;5084029;28;19908;-67
2022/12/03 12:02:24;;;;;;;;;;;1.30;99.90;;;;;;5078856;28;19952;-66
2022/12/03 12:04:49;;;;;;;;;;;1.40;99.90;;;;;;5086621;28;19912;-67
2022/12/03 12:07:32;;;;;;;;;;;1.40;99.90;;;;;;5090305;28;19908;-67
2022/12/03 12:09:57;;;;;;;;;;;1.40;99.90;;;;;;5087451;28;20142;-67
2022/12/03 12:12:26;;;;;;;;;;;1.40;99.90;;;;;;5089149;28;19919;-65
2022/12/03 12:14:51;;;;;;;;;;;1.40;99.90;;;;;;5086161;28;20269;-66
2022/12/03 12:17:30;;;;;;;;;;;1.40;99.90;;;;;;5089924;28;19920;-67
2022/12/03 12:20:19;;;;;;;;;;;1.40;99.90;;;;;;5113721;27;19951;-67
2022/12/03 12:22:45;;;;;;;;;;;1.40;99.90;;;;;;5074972;28;20091;-66
2022/12/03 12:25:28;;;;;;;;;;;1.40;99.90;;;;;;5077335;28;20073;-67
2022/12/03 12:27:54;;;;;;;;;;;1.40;99.90;;;;;;5077182;28;19924;-67
2022/12/03 12:30:20;;;;;;;;;;;1.40;99.90;;;;;;5076374;28;20143;-66
2022/12/03 12:32:50;;;;;;;;;;;1.50;99.90;;;;;;5075968;28;19919;-67
2022/12/03 12:35:19;;;;;;;;;;;1.40;99.90;;;;;;5073665;28;20164;-67
2022/12/03 12:38:03;;;;;;;;;;;1.40;99.90;;;;;;5075780;28;19912;-67
2022/12/03 12:40:31;;;;;;;;;;;1.40;99.90;;;;;;5071274;28;19919;-67
2022/12/03 12:42:57;;;;;;;;;;;1.40;99.90;;;;;;5071363;28;20422;-66
2022/12/03 12:45:24;;;;;;;;;;;1.40;99.90;;;;;;5074444;28;20375;-66
2022/12/03 12:47:53;;;;;;;;;;;1.30;99.90;;;;;;5064694;28;19909;-66
2022/12/03 12:50:18;;;;;;;;;;;1.40;99.90;;;;;;5068626;28;19913;-66
2022/12/03 12:52:49;;;;;;;;;;;1.40;99.90;;;;;;5066893;28;20253;-66
2022/12/03 12:55:16;;;;;;;;;;;1.40;99.90;;;;;;5081431;28;19916;-66
2022/12/03 12:57:41;;;;;;;;;;;1.40;99.90;;;;;;5062635;28;20099;-66
2022/12/03 13:00:12;;;;;;;;;;;1.40;99.90;;;;;;5080465;28;20424;-66
2022/12/03 13:02:41;;;;;;;;;;;1.40;99.90;;;;;;5074472;28;19928;-66
2022/12/03 13:05:08;;;;;;;;;;;1.40;99.90;;;;;;5073184;28;20427;-67
2022/12/03 13:07:34;;;;;;;;;;;1.30;99.90;;;;;;5070187;28;20012;-67
2022/12/03 13:10:11;;;;;;;;;;;1.40;99.90;;;;;;5073636;28;20345;-67
2022/12/03 13:12:37;;;;;;;;;;;1.40;99.90;;;;;;5073618;28;20374;-66
2022/12/03 13:15:06;;;;;;;;;;;1.40;99.90;;;;;;5072255;28;19909;-66
2022/12/03 13:17:32;;;;;;;;;;;1.40;99.90;;;;;;5077983;28;19919;-67
2022/12/03 13:19:58;;;;;;;;;;;1.40;99.90;;;;;;5091356;22;19924;-55
2022/12/03 13:22:24;;;;;;;;;;;1.40;99.90;;;;;;5093385;28;20297;-60
2022/12/03 13:24:50;;;;;;;;;;;1.40;99.90;;;;;;5094252;28;19915;-60
2022/12/03 13:27:16;;;;;;;;;;;1.40;99.90;;;;;;5082731;28;19908;-60
2022/12/03 13:29:42;;;;;;;;;;;1.30;99.90;;;;;;5091098;28;19908;-59
2022/12/03 13:32:13;;;;;;;;;;;1.40;99.90;;;;;;5082328;28;20020;-56
2022/12/03 13:34:38;;;;;;;;;;;1.40;99.90;;;;;;5078425;28;20412;-59
2022/12/03 13:37:11;;;;;;;;;;;1.40;99.90;;;;;;5082661;28;20011;-58
2022/12/03 13:39:39;;;;;;;;;;;1.40;99.90;;;;;;5078741;28;19924;-58
2022/12/03 13:45:00;;;;;;;;;;;1.40;99.90;;;;;;5083774;28;19920;-57
2022/12/03 13:47:25;;;;;;;;;;;1.40;99.90;;;;;;5078926;28;19908;-56
2022/12/03 13:49:55;;;;;;;;;;;1.50;99.90;;;;;;5086649;28;20469;-59
2022/12/03 13:52:21;;;;;;;;;;;1.50;99.90;;;;;;5079698;28;19916;-58
2022/12/03 13:54:49;;;;;;;;;;;1.50;99.90;;;;;;5086728;28;20409;-58
2022/12/03 13:57:15;;;;;;;;;;;1.50;99.90;;;;;;5084947;28;19917;-57
2022/12/03 13:59:40;;;;;;;;;;;1.50;99.90;;;;;;5084408;28;20004;-57
2022/12/03 14:02:06;;;;;;;;;;;1.50;99.90;;;;;;5080780;28;19908;-57
2022/12/03 14:04:32;;;;;;;;;;;1.50;99.90;;;;;;5080558;28;20007;-57
2022/12/03 14:06:57;;;;;;;;;;;1.50;99.90;;;;;;5086217;28;19908;-59
2022/12/03 14:09:23;;;;;;;;;;;1.40;99.90;;;;;;5080052;28;19924;-55
2022/12/03 14:14:32;;;;;;;;;;;1.30;99.90;;;;;;5077541;28;20022;-60
2022/12/03 14:16:58;;;;;;;;;;;1.30;99.90;;;;;;5088073;28;19946;-56
2022/12/03 14:19:23;;;;;;;;;;;1.30;99.90;;;;;;5078439;28;19919;-60
2022/12/03 14:21:49;;;;;;;;;;;1.30;99.90;;;;;;5079642;28;20429;-57
2022/12/03 14:24:14;;;;;;;;;;;1.30;99.90;;;;;;5081527;28;19936;-56
2022/12/03 14:26:40;;;;;;;;;;;1.30;99.90;;;;;;5080119;28;19919;-59
2022/12/03 14:29:05;;;;;;;;;;;1.30;99.90;;;;;;5072966;28;19912;-59
2022/12/03 14:31:30;;;;;;;;;;;1.20;99.90;;;;;;5079585;28;19958;-56
2022/12/03 14:33:56;;;;;;;;;;;1.20;99.90;;;;;;5080568;28;20409;-60
2022/12/03 14:36:21;;;;;;;;;;;1.10;99.90;;;;;;5079577;28;19908;-56
2022/12/03 14:38:47;;;;;;;;;;;1.10;99.90;;;;;;5074878;28;19920;-55
2022/12/03 14:43:56;;;;;;;;;;;1.00;99.90;;;;;;5080004;28;19922;-57
2022/12/03 14:46:22;;;;;;;;;;;0.90;99.90;;;;;;5079954;28;19916;-55
2022/12/03 14:48:47;;;;;;;;;;;0.90;99.90;;;;;;5077555;28;20118;-56
2022/12/03 14:51:13;;;;;;;;;;;0.90;99.90;;;;;;5082353;28;20435;-57
2022/12/03 14:53:38;;;;;;;;;;;0.90;99.90;;;;;;5075791;28;20061;-60
2022/12/03 14:56:04;;;;;;;;;;;0.90;99.90;;;;;;5081197;28;19962;-58
2022/12/03 14:58:29;;;;;;;;;;;0.80;99.90;;;;;;5077549;28;19923;-58